createdAt,value
2018-03-20T00:00:52.766Z,0.00
2018-03-20T00:01:51.651Z,0.00
2018-03-20T00:02:52.031Z,0.00
2018-03-20T00:03:51.402Z,0.00
2018-03-20T00:04:51.341Z,0.00
2018-03-20T00:05:54.036Z,0.00
2018-03-20T00:06:51.208Z,0.00
2018-03-20T00:07:51.034Z,0.00
2018-03-20T00:08:52.535Z,0.00
2018-03-20T00:09:50.791Z,0.00
2018-03-20T00:10:51.783Z,0.00
2018-03-20T00:11:50.628Z,0.00
2018-03-20T00:12:50.531Z,0.00
2018-03-20T00:13:50.388Z,0.00
2018-03-20T00:14:50.297Z,0.00
2018-03-20T00:15:50.125Z,0.00
2018-03-20T00:16:50.064Z,0.00
2018-03-20T00:17:49.987Z,0.00
2018-03-20T00:18:49.924Z,0.00
2018-03-20T00:19:49.758Z,0.00
2018-03-20T00:20:50.188Z,0.00
2018-03-20T00:21:49.510Z,0.00
2018-03-20T00:22:49.437Z,0.00
2018-03-20T00:23:49.350Z,0.00
2018-03-20T00:24:49.291Z,0.00
2018-03-20T00:25:49.091Z,0.00
2018-03-20T00:26:49.006Z,0.00
2018-03-20T00:27:48.913Z,0.00
2018-03-20T00:28:48.797Z,0.00
2018-03-20T00:29:48.688Z,0.00
2018-03-20T00:30:49.532Z,0.00
2018-03-20T00:31:48.436Z,0.00
2018-03-20T00:32:49.202Z,0.00
2018-03-20T00:33:48.257Z,0.00
2018-03-20T00:34:48.197Z,0.00
2018-03-20T00:35:48.739Z,0.00
2018-03-20T00:36:48.017Z,0.00
2018-03-20T00:37:47.813Z,0.00
2018-03-20T00:38:47.716Z,0.00
2018-03-20T00:39:47.613Z,0.00
2018-03-20T00:40:48.031Z,0.00
2018-03-20T00:41:47.425Z,0.00
2018-03-20T00:42:47.351Z,0.00
2018-03-20T00:43:47.175Z,0.00
2018-03-20T00:44:47.112Z,0.00
2018-03-20T00:45:47.530Z,0.00
2018-03-20T00:46:46.862Z,0.00
2018-03-20T00:47:46.742Z,0.00
2018-03-20T00:48:46.743Z,0.00
2018-03-20T00:49:46.578Z,0.00
2018-03-20T00:50:47.034Z,0.00
2018-03-20T00:51:46.370Z,0.00
2018-03-20T00:52:46.241Z,0.00
2018-03-20T00:53:46.139Z,0.00
2018-03-20T00:54:46.746Z,0.00
2018-03-20T00:55:45.929Z,0.00
2018-03-20T00:56:45.839Z,0.00
2018-03-20T00:57:45.734Z,0.00
2018-03-20T00:58:45.639Z,0.00
2018-03-20T00:59:45.526Z,0.00
2018-03-20T01:00:45.439Z,0.00
2018-03-20T01:01:45.285Z,0.00
2018-03-20T01:02:45.183Z,0.00
2018-03-20T01:03:45.102Z,0.00
2018-03-20T01:04:44.984Z,0.00
2018-03-20T01:05:44.900Z,0.00
2018-03-20T01:06:44.860Z,0.00
2018-03-20T01:07:44.702Z,0.00
2018-03-20T01:08:44.557Z,0.00
2018-03-20T01:09:44.455Z,0.00
2018-03-20T01:10:44.353Z,0.00
2018-03-20T01:11:45.032Z,0.00
2018-03-20T01:12:44.157Z,0.00
2018-03-20T01:13:44.037Z,0.00
2018-03-20T01:14:43.944Z,0.00
2018-03-20T01:15:44.534Z,0.00
2018-03-20T01:16:44.537Z,0.00
2018-03-20T01:17:43.617Z,0.00
2018-03-20T01:18:44.536Z,0.00
2018-03-20T01:19:43.435Z,0.00
2018-03-20T01:20:43.281Z,0.00
2018-03-20T01:21:43.202Z,0.00
2018-03-20T01:22:43.155Z,0.00
2018-03-20T01:23:42.983Z,0.00
2018-03-20T01:24:42.867Z,0.00
2018-03-20T01:25:42.764Z,0.00
2018-03-20T01:26:42.633Z,0.00
2018-03-20T01:27:42.556Z,0.00
2018-03-20T01:28:42.509Z,0.00
2018-03-20T01:29:42.344Z,0.00
2018-03-20T01:30:42.235Z,0.00
2018-03-20T01:31:43.037Z,0.00
2018-03-20T01:32:56.724Z,0.00
2018-03-20T01:33:41.938Z,0.00
2018-03-20T01:34:41.886Z,0.00
2018-03-20T01:35:41.702Z,0.00
2018-03-20T01:36:41.610Z,0.00
2018-03-20T01:37:41.500Z,0.00
2018-03-20T01:38:41.389Z,0.00
2018-03-20T01:39:41.259Z,0.00
2018-03-20T01:40:41.197Z,0.00
2018-03-20T01:41:41.052Z,0.00
2018-03-20T01:42:40.966Z,0.00
2018-03-20T01:44:01.832Z,0.00
2018-03-20T01:44:41.532Z,0.00
2018-03-20T01:45:40.696Z,0.00
2018-03-20T01:46:40.534Z,0.00
2018-03-20T01:47:40.410Z,0.00
2018-03-20T01:48:40.324Z,0.00
2018-03-20T01:49:41.033Z,0.00
2018-03-20T01:50:40.092Z,0.00
2018-03-20T01:51:40.023Z,0.00
2018-03-20T01:52:39.893Z,0.00
2018-03-20T01:54:04.719Z,0.00
2018-03-20T01:54:39.679Z,0.00
2018-03-20T01:55:39.588Z,0.00
2018-03-20T01:56:39.511Z,0.00
2018-03-20T01:57:39.367Z,0.00
2018-03-20T01:58:39.260Z,0.00
2018-03-20T01:59:40.040Z,0.00
2018-03-20T02:00:39.026Z,0.00
2018-03-20T02:01:38.941Z,0.00
2018-03-20T02:02:39.539Z,0.00
2018-03-20T02:03:38.726Z,0.00
2018-03-20T02:04:46.209Z,0.00
2018-03-20T02:05:38.521Z,0.00
2018-03-20T02:06:38.424Z,0.00
2018-03-20T02:07:38.309Z,0.00
2018-03-20T02:08:38.255Z,0.00
2018-03-20T02:09:38.102Z,0.00
2018-03-20T02:10:37.984Z,0.00
2018-03-20T02:11:37.876Z,0.00
2018-03-20T02:12:37.768Z,0.00
2018-03-20T02:13:38.532Z,0.00
2018-03-20T02:14:37.604Z,0.00
2018-03-20T02:15:37.466Z,0.00
2018-03-20T02:16:37.309Z,0.00
2018-03-20T02:17:37.239Z,0.00
2018-03-20T02:18:37.141Z,0.00
2018-03-20T02:19:37.042Z,0.00
2018-03-20T02:20:36.962Z,0.00
2018-03-20T02:21:36.810Z,0.00
2018-03-20T02:22:36.708Z,0.00
2018-03-20T02:23:36.594Z,0.00
2018-03-20T02:24:37.036Z,0.00
2018-03-20T02:25:36.379Z,0.00
2018-03-20T02:26:38.045Z,0.00
2018-03-20T02:27:36.168Z,0.00
2018-03-20T02:28:36.074Z,0.00
2018-03-20T02:29:35.970Z,0.00
2018-03-20T02:30:35.857Z,0.00
2018-03-20T02:31:35.725Z,0.00
2018-03-20T02:32:35.688Z,0.00
2018-03-20T02:33:35.570Z,0.00
2018-03-20T02:34:35.452Z,0.00
2018-03-20T02:35:35.299Z,0.00
2018-03-20T02:36:35.225Z,0.00
2018-03-20T02:37:35.133Z,0.00
2018-03-20T02:38:35.536Z,0.00
2018-03-20T02:39:34.912Z,0.00
2018-03-20T02:40:38.541Z,0.00
2018-03-20T02:41:34.688Z,0.00
2018-03-20T02:42:34.586Z,0.00
2018-03-20T02:43:34.481Z,0.00
2018-03-20T02:44:34.438Z,0.00
2018-03-20T02:45:34.238Z,0.00
2018-03-20T02:46:34.157Z,0.00
2018-03-20T02:47:34.078Z,0.00
2018-03-20T02:48:33.884Z,0.00
2018-03-20T02:49:33.851Z,0.00
2018-03-20T02:50:33.773Z,0.00
2018-03-20T02:51:33.605Z,0.00
2018-03-20T02:52:33.520Z,0.00
2018-03-20T02:53:33.431Z,0.00
2018-03-20T02:54:33.276Z,0.00
2018-03-20T02:55:33.167Z,0.00
2018-03-20T02:56:33.146Z,0.00
2018-03-20T02:57:32.952Z,0.00
2018-03-20T02:58:32.908Z,0.00
2018-03-20T02:59:32.770Z,0.00
2018-03-20T03:00:32.663Z,0.00
2018-03-20T03:01:32.548Z,0.00
2018-03-20T03:02:32.524Z,0.00
2018-03-20T03:03:32.348Z,0.00
2018-03-20T03:04:32.249Z,0.00
2018-03-20T03:05:32.111Z,0.00
2018-03-20T03:06:32.027Z,0.00
2018-03-20T03:07:31.880Z,0.00
2018-03-20T03:08:31.831Z,0.00
2018-03-20T03:09:31.701Z,0.00
2018-03-20T03:10:31.600Z,0.00
2018-03-20T03:11:31.472Z,0.00
2018-03-20T03:12:31.386Z,0.00
2018-03-20T03:13:31.285Z,0.00
2018-03-20T03:14:31.217Z,0.00
2018-03-20T03:15:31.069Z,0.00
2018-03-20T03:16:30.957Z,0.00
2018-03-20T03:17:30.854Z,0.00
2018-03-20T03:18:30.731Z,0.00
2018-03-20T03:19:30.647Z,0.00
2018-03-20T03:20:30.565Z,0.00
2018-03-20T03:21:30.437Z,0.00
2018-03-20T03:22:30.267Z,0.00
2018-03-20T03:23:30.212Z,0.00
2018-03-20T03:24:30.066Z,0.00
2018-03-20T03:25:29.981Z,0.00
2018-03-20T03:26:29.926Z,0.00
2018-03-20T03:27:30.528Z,0.00
2018-03-20T03:28:29.675Z,0.00
2018-03-20T03:29:29.615Z,0.00
2018-03-20T03:30:29.466Z,0.00
2018-03-20T03:31:29.371Z,0.00
2018-03-20T03:32:29.298Z,0.00
2018-03-20T03:33:29.136Z,0.00
2018-03-20T03:34:29.047Z,0.00
2018-03-20T03:35:28.933Z,0.00
2018-03-20T03:36:28.815Z,0.00
2018-03-20T03:37:28.773Z,0.00
2018-03-20T03:38:28.656Z,0.00
2018-03-20T03:39:29.532Z,0.00
2018-03-20T03:40:28.399Z,0.00
2018-03-20T03:41:28.289Z,0.00
2018-03-20T03:42:28.163Z,0.00
2018-03-20T03:43:28.079Z,0.00
2018-03-20T03:44:28.007Z,0.00
2018-03-20T03:45:27.863Z,0.00
2018-03-20T03:46:27.762Z,0.00
2018-03-20T03:47:27.643Z,0.00
2018-03-20T03:48:27.553Z,0.00
2018-03-20T03:49:27.459Z,0.00
2018-03-20T03:50:27.374Z,0.00
2018-03-20T03:51:27.215Z,0.00
2018-03-20T03:52:27.120Z,0.00
2018-03-20T03:53:27.038Z,0.00
2018-03-20T03:54:26.923Z,0.00
2018-03-20T03:55:26.785Z,0.00
2018-03-20T03:56:26.757Z,0.00
2018-03-20T03:57:26.589Z,0.00
2018-03-20T03:58:26.437Z,0.00
2018-03-20T03:59:26.363Z,0.00
2018-03-20T04:00:26.300Z,0.00
2018-03-20T04:01:27.036Z,0.00
2018-03-20T04:02:26.093Z,0.00
2018-03-20T04:03:25.928Z,0.00
2018-03-20T04:04:25.837Z,0.00
2018-03-20T04:05:25.754Z,0.00
2018-03-20T04:06:25.627Z,0.00
2018-03-20T04:07:25.524Z,0.00
2018-03-20T04:08:25.501Z,0.00
2018-03-20T04:09:25.281Z,0.00
2018-03-20T04:10:25.211Z,0.00
2018-03-20T04:11:25.072Z,0.00
2018-03-20T04:12:24.974Z,0.00
2018-03-20T04:13:24.872Z,0.00
2018-03-20T04:14:24.855Z,0.00
2018-03-20T04:15:24.650Z,0.00
2018-03-20T04:16:24.538Z,0.00
2018-03-20T04:17:24.443Z,0.00
2018-03-20T04:18:24.325Z,0.00
2018-03-20T04:19:24.220Z,0.00
2018-03-20T04:20:24.160Z,0.00
2018-03-20T04:21:24.022Z,0.00
2018-03-20T04:22:23.869Z,0.00
2018-03-20T04:23:23.769Z,0.00
2018-03-20T04:24:23.698Z,0.00
2018-03-20T04:25:23.598Z,0.00
2018-03-20T04:26:23.532Z,0.00
2018-03-20T04:27:23.388Z,0.00
2018-03-20T04:28:23.291Z,0.00
2018-03-20T04:29:23.216Z,0.00
2018-03-20T04:30:23.127Z,0.00
2018-03-20T04:31:22.915Z,0.00
2018-03-20T04:32:22.987Z,0.00
2018-03-20T04:33:22.776Z,0.00
2018-03-20T04:34:22.655Z,0.00
2018-03-20T04:35:22.494Z,0.00
2018-03-20T04:36:22.417Z,0.00
2018-03-20T04:37:22.342Z,0.00
2018-03-20T04:38:22.246Z,0.00
2018-03-20T04:39:22.530Z,0.00
2018-03-20T04:40:21.964Z,0.00
2018-03-20T04:41:21.883Z,0.00
2018-03-20T04:42:21.787Z,0.00
2018-03-20T04:43:21.685Z,0.00
2018-03-20T04:44:21.765Z,0.00
2018-03-20T04:45:21.491Z,4.00
2018-03-20T04:46:21.342Z,4.00
2018-03-20T04:47:21.245Z,0.00
2018-03-20T04:48:21.139Z,4.00
2018-03-20T04:49:21.017Z,4.00
2018-03-20T04:50:20.966Z,4.00
2018-03-20T04:51:20.813Z,8.00
2018-03-20T04:52:20.717Z,8.00
2018-03-20T04:53:20.620Z,12.00
2018-03-20T04:54:20.489Z,12.00
2018-03-20T04:55:20.415Z,12.00
2018-03-20T04:56:20.325Z,20.00
2018-03-20T04:57:20.167Z,24.00
2018-03-20T04:58:20.043Z,24.00
2018-03-20T04:59:19.968Z,32.00
2018-03-20T05:00:19.863Z,36.00
2018-03-20T05:01:19.767Z,44.00
2018-03-20T05:02:19.682Z,48.00
2018-03-20T05:03:19.566Z,56.00
2018-03-20T05:04:19.495Z,68.00
2018-03-20T05:05:19.337Z,76.00
2018-03-20T05:06:19.187Z,92.00
2018-03-20T05:07:19.104Z,104.00
2018-03-20T05:08:19.089Z,120.00
2018-03-20T05:09:18.917Z,140.00
2018-03-20T05:10:18.793Z,160.00
2018-03-20T05:11:18.696Z,176.00
2018-03-20T05:12:18.574Z,204.00
2018-03-20T05:13:18.487Z,228.00
2018-03-20T05:14:18.399Z,260.00
2018-03-20T05:15:18.253Z,288.00
2018-03-20T05:16:18.159Z,320.00
2018-03-20T05:17:18.053Z,360.00
2018-03-20T05:18:17.939Z,400.00
2018-03-20T05:19:17.815Z,436.00
2018-03-20T05:20:17.801Z,476.00
2018-03-20T05:21:17.627Z,524.00
2018-03-20T05:22:19.040Z,572.00
2018-03-20T05:23:17.369Z,620.00
2018-03-20T05:24:17.316Z,672.00
2018-03-20T05:25:17.171Z,724.00
2018-03-20T05:26:17.297Z,780.00
2018-03-20T05:27:16.952Z,836.00
2018-03-20T05:28:16.833Z,888.00
2018-03-20T05:29:16.747Z,948.00
2018-03-20T05:30:16.646Z,1004.00
2018-03-20T05:31:16.547Z,1064.00
2018-03-20T05:32:16.505Z,1124.00
2018-03-20T05:33:16.357Z,1184.00
2018-03-20T05:34:16.262Z,1240.00
2018-03-20T05:35:16.123Z,1300.00
2018-03-20T05:36:16.023Z,1356.00
2018-03-20T05:37:15.932Z,1420.00
2018-03-20T05:38:15.862Z,1480.00
2018-03-20T05:39:15.698Z,1544.00
2018-03-20T05:40:15.623Z,1604.00
2018-03-20T05:41:15.500Z,1668.00
2018-03-20T05:42:15.411Z,1728.00
2018-03-20T05:43:15.300Z,1792.00
2018-03-20T05:44:15.248Z,1848.00
2018-03-20T05:45:15.082Z,1908.00
2018-03-20T05:46:14.956Z,1964.00
2018-03-20T05:47:14.862Z,2024.00
2018-03-20T05:48:16.533Z,2084.00
2018-03-20T05:49:14.652Z,2144.00
2018-03-20T05:50:14.576Z,2208.00
2018-03-20T05:51:15.028Z,2268.00
2018-03-20T05:52:14.316Z,2328.00
2018-03-20T05:53:14.215Z,2388.00
2018-03-20T05:54:14.096Z,2444.00
2018-03-20T05:55:14.027Z,2508.00
2018-03-20T05:56:13.958Z,2568.00
2018-03-20T05:57:13.811Z,2628.00
2018-03-20T05:58:13.697Z,2684.00
2018-03-20T05:59:13.565Z,2744.00
2018-03-20T06:00:13.483Z,2812.00
2018-03-20T06:01:13.373Z,2884.00
2018-03-20T06:02:13.291Z,2952.00
2018-03-20T06:03:13.119Z,3016.00
2018-03-20T06:04:13.027Z,3084.00
2018-03-20T06:05:12.914Z,3148.00
2018-03-20T06:06:12.790Z,3212.00
2018-03-20T06:07:12.697Z,3284.00
2018-03-20T06:08:12.684Z,3352.00
2018-03-20T06:09:12.536Z,3432.00
2018-03-20T06:10:12.369Z,3492.00
2018-03-20T06:11:13.027Z,3548.00
2018-03-20T06:12:12.183Z,3624.00
2018-03-20T06:13:12.117Z,3676.00
2018-03-20T06:14:12.030Z,3944.00
2018-03-20T06:15:11.863Z,4048.00
2018-03-20T06:16:11.773Z,4176.00
2018-03-20T06:17:11.681Z,4808.00
2018-03-20T06:18:11.565Z,4616.00
2018-03-20T06:19:11.476Z,4208.00
2018-03-20T06:20:11.453Z,4148.00
2018-03-20T06:21:11.228Z,4164.00
2018-03-20T06:22:11.135Z,4220.00
2018-03-20T06:23:11.019Z,4648.00
2018-03-20T06:24:10.924Z,5000.00
2018-03-20T06:25:10.827Z,5096.00
2018-03-20T06:26:10.772Z,6048.00
2018-03-20T06:27:10.611Z,5912.00
2018-03-20T06:28:10.522Z,6164.00
2018-03-20T06:29:10.420Z,6452.00
2018-03-20T06:30:10.317Z,6616.00
2018-03-20T06:31:10.182Z,6756.00
2018-03-20T06:32:10.099Z,7432.00
2018-03-20T06:33:09.952Z,7864.00
2018-03-20T06:34:09.863Z,8140.00
2018-03-20T06:35:09.758Z,8828.00
2018-03-20T06:36:09.667Z,9456.00
2018-03-20T06:37:09.584Z,10332.00
2018-03-20T06:38:09.488Z,11924.00
2018-03-20T06:39:09.324Z,12484.00
2018-03-20T06:40:09.240Z,12556.00
2018-03-20T06:41:09.166Z,13068.00
2018-03-20T06:42:09.525Z,12716.00
2018-03-20T06:43:08.943Z,14720.00
2018-03-20T06:44:08.875Z,14952.00
2018-03-20T06:45:08.762Z,15320.00
2018-03-20T06:46:08.621Z,13060.00
2018-03-20T06:47:08.528Z,12048.00
2018-03-20T06:48:08.432Z,12416.00
2018-03-20T06:49:08.325Z,8968.00
2018-03-20T06:50:08.260Z,8096.00
2018-03-20T06:51:08.128Z,7220.00
2018-03-20T06:52:08.030Z,6472.00
2018-03-20T06:53:07.929Z,5800.00
2018-03-20T06:54:07.823Z,5216.00
2018-03-20T06:55:07.727Z,4816.00
2018-03-20T06:56:08.525Z,4580.00
2018-03-20T06:57:07.520Z,4440.00
2018-03-20T06:58:07.429Z,4344.00
2018-03-20T06:59:07.314Z,4300.00
2018-03-20T07:00:07.235Z,4300.00
2018-03-20T07:01:07.089Z,4384.00
2018-03-20T07:02:07.086Z,4472.00
2018-03-20T07:03:08.535Z,4500.00
2018-03-20T07:04:06.816Z,4480.00
2018-03-20T07:05:07.529Z,4420.00
2018-03-20T07:06:06.620Z,4340.00
2018-03-20T07:07:06.530Z,4300.00
2018-03-20T07:08:06.476Z,4416.00
2018-03-20T07:09:06.325Z,4724.00
2018-03-20T07:10:06.215Z,5148.00
2018-03-20T07:11:06.136Z,5520.00
2018-03-20T07:12:06.028Z,5724.00
2018-03-20T07:13:05.889Z,6040.00
2018-03-20T07:14:05.853Z,6556.00
2018-03-20T07:15:05.734Z,7444.00
2018-03-20T07:16:05.605Z,8488.00
2018-03-20T07:17:05.516Z,9100.00
2018-03-20T07:18:05.427Z,9520.00
2018-03-20T07:19:05.338Z,10176.00
2018-03-20T07:20:05.269Z,10784.00
2018-03-20T07:21:05.128Z,10924.00
2018-03-20T07:22:05.035Z,10988.00
2018-03-20T07:23:05.538Z,11164.00
2018-03-20T07:24:04.815Z,11240.00
2018-03-20T07:25:04.726Z,10988.00
2018-03-20T07:26:04.660Z,10704.00
2018-03-20T07:27:04.540Z,10780.00
2018-03-20T07:28:05.033Z,11120.00
2018-03-20T07:29:04.324Z,11616.00
2018-03-20T07:30:04.180Z,11764.00
2018-03-20T07:31:04.116Z,11744.00
2018-03-20T07:32:04.079Z,11740.00
2018-03-20T07:33:03.897Z,11640.00
2018-03-20T07:34:04.715Z,11636.00
2018-03-20T07:35:03.711Z,12172.00
2018-03-20T07:36:03.669Z,13004.00
2018-03-20T07:37:04.031Z,13064.00
2018-03-20T07:38:03.460Z,12264.00
2018-03-20T07:39:03.304Z,11608.00
2018-03-20T07:40:03.218Z,11108.00
2018-03-20T07:41:03.118Z,10536.00
2018-03-20T07:42:03.045Z,10208.00
2018-03-20T07:43:02.954Z,10320.00
2018-03-20T07:44:03.527Z,10392.00
2018-03-20T07:45:02.740Z,9964.00
2018-03-20T07:46:02.655Z,9552.00
2018-03-20T07:47:02.535Z,9248.00
2018-03-20T07:48:02.440Z,9144.00
2018-03-20T07:49:03.031Z,9524.00
2018-03-20T07:50:02.281Z,10388.00
2018-03-20T07:51:02.143Z,11708.00
2018-03-20T07:52:02.052Z,13216.00
2018-03-20T07:53:01.955Z,14404.00
2018-03-20T07:54:01.842Z,15268.00
2018-03-20T07:55:01.757Z,16252.00
2018-03-20T07:56:01.698Z,18048.00
2018-03-20T07:57:01.565Z,20032.00
2018-03-20T07:58:01.473Z,21344.00
2018-03-20T07:59:01.368Z,21152.00
2018-03-20T08:00:01.235Z,18944.00
2018-03-20T08:01:01.142Z,15368.00
2018-03-20T08:02:01.091Z,13004.00
2018-03-20T08:03:00.936Z,13660.00
2018-03-20T08:04:00.815Z,16928.00
2018-03-20T08:05:00.725Z,20224.00
2018-03-20T08:06:00.625Z,22176.00
2018-03-20T08:07:00.513Z,22720.00
2018-03-20T08:08:00.521Z,22720.00
2018-03-20T08:09:00.314Z,22592.00
2018-03-20T08:10:00.219Z,21568.00
2018-03-20T08:11:00.125Z,19520.00
2018-03-20T08:12:00.020Z,17184.00
2018-03-20T08:12:59.924Z,15008.00
2018-03-20T08:13:59.868Z,13812.00
2018-03-20T08:14:59.726Z,13296.00
2018-03-20T08:15:59.624Z,13684.00
2018-03-20T08:16:59.543Z,13532.00
2018-03-20T08:17:59.404Z,14092.00
2018-03-20T08:18:59.325Z,14372.00
2018-03-20T08:19:59.287Z,14736.00
2018-03-20T08:20:59.107Z,14792.00
2018-03-20T08:21:59.045Z,15072.00
2018-03-20T08:22:58.945Z,15428.00
2018-03-20T08:23:58.862Z,15720.00
2018-03-20T08:24:58.767Z,15632.00
2018-03-20T08:25:58.725Z,15052.00
2018-03-20T08:26:58.549Z,14852.00
2018-03-20T08:27:58.433Z,15012.00
2018-03-20T08:28:58.395Z,14832.00
2018-03-20T08:29:58.269Z,14884.00
2018-03-20T08:30:58.171Z,14360.00
2018-03-20T08:31:58.128Z,13100.00
2018-03-20T08:32:58.003Z,11636.00
2018-03-20T08:33:57.873Z,10920.00
2018-03-20T08:34:57.763Z,10792.00
2018-03-20T08:35:57.683Z,11236.00
2018-03-20T08:36:57.589Z,12012.00
2018-03-20T08:37:57.543Z,13488.00
2018-03-20T08:38:57.381Z,13976.00
2018-03-20T08:39:57.288Z,15068.00
2018-03-20T08:40:57.188Z,15964.00
2018-03-20T08:41:57.090Z,15548.00
2018-03-20T08:42:56.994Z,14404.00
2018-03-20T08:43:56.917Z,13892.00
2018-03-20T08:44:56.794Z,13552.00
2018-03-20T08:45:56.693Z,13420.00
2018-03-20T08:46:56.608Z,13808.00
2018-03-20T08:47:56.474Z,14360.00
2018-03-20T08:48:56.407Z,14300.00
2018-03-20T08:49:56.409Z,14132.00
2018-03-20T08:50:56.226Z,14112.00
2018-03-20T08:51:56.123Z,14148.00
2018-03-20T08:52:56.020Z,13868.00
2018-03-20T08:53:55.926Z,13336.00
2018-03-20T08:54:55.831Z,12568.00
2018-03-20T08:55:55.758Z,12012.00
2018-03-20T08:56:55.622Z,11688.00
2018-03-20T08:57:55.541Z,11500.00
2018-03-20T08:58:55.406Z,11556.00
2018-03-20T08:59:55.341Z,12248.00
2018-03-20T09:00:55.238Z,13464.00
2018-03-20T09:01:55.199Z,14616.00
2018-03-20T09:02:55.044Z,15124.00
2018-03-20T09:03:54.935Z,14948.00
2018-03-20T09:04:54.847Z,14328.00
2018-03-20T09:05:54.750Z,13160.00
2018-03-20T09:06:54.652Z,11752.00
2018-03-20T09:07:54.591Z,10780.00
2018-03-20T09:08:54.465Z,10236.00
2018-03-20T09:09:54.355Z,10084.00
2018-03-20T09:10:54.255Z,10340.00
2018-03-20T09:11:54.175Z,10728.00
2018-03-20T09:12:54.057Z,11080.00
2018-03-20T09:13:54.010Z,11512.00
2018-03-20T09:14:53.879Z,12160.00
2018-03-20T09:15:53.784Z,13012.00
2018-03-20T09:16:53.705Z,14060.00
2018-03-20T09:17:53.589Z,14916.00
2018-03-20T09:18:53.496Z,15452.00
2018-03-20T09:19:53.464Z,15864.00
2018-03-20T09:20:53.308Z,16396.00
2018-03-20T09:21:53.192Z,16224.00
2018-03-20T09:22:53.088Z,15964.00
2018-03-20T09:23:52.953Z,15484.00
2018-03-20T09:24:52.924Z,14816.00
2018-03-20T09:25:52.837Z,13952.00
2018-03-20T09:26:52.704Z,13116.00
2018-03-20T09:27:52.629Z,12184.00
2018-03-20T09:28:52.515Z,11176.00
2018-03-20T09:29:52.439Z,10108.00
2018-03-20T09:30:52.311Z,8888.00
2018-03-20T09:31:52.237Z,7568.00
2018-03-20T09:32:52.123Z,6540.00
2018-03-20T09:33:52.010Z,5880.00
2018-03-20T09:34:51.894Z,5472.00
2018-03-20T09:35:51.838Z,5100.00
2018-03-20T09:36:51.736Z,4916.00
2018-03-20T09:37:51.700Z,4980.00
2018-03-20T09:38:51.525Z,5088.00
2018-03-20T09:39:51.440Z,5428.00
2018-03-20T09:40:51.345Z,5844.00
2018-03-20T09:41:51.249Z,6276.00
2018-03-20T09:42:51.155Z,6764.00
2018-03-20T09:43:51.069Z,7372.00
2018-03-20T09:44:50.959Z,7820.00
2018-03-20T09:45:50.858Z,8340.00
2018-03-20T09:46:50.766Z,8848.00
2018-03-20T09:47:50.649Z,9212.00
2018-03-20T09:48:50.561Z,9532.00
2018-03-20T09:49:50.495Z,9624.00
2018-03-20T09:50:50.371Z,9768.00
2018-03-20T09:51:50.267Z,9852.00
2018-03-20T09:52:50.190Z,9988.00
2018-03-20T09:53:50.101Z,10016.00
2018-03-20T09:54:49.993Z,9948.00
2018-03-20T09:55:49.970Z,9800.00
2018-03-20T09:56:49.784Z,9612.00
2018-03-20T09:57:49.684Z,9472.00
2018-03-20T09:58:49.600Z,9328.00
2018-03-20T09:59:49.475Z,9268.00
2018-03-20T10:00:49.410Z,9172.00
2018-03-20T10:01:50.048Z,9104.00
2018-03-20T10:02:49.235Z,9112.00
2018-03-20T10:03:49.114Z,9112.00
2018-03-20T10:04:49.024Z,9196.00
2018-03-20T10:05:48.903Z,9232.00
2018-03-20T10:06:48.896Z,9268.00
2018-03-20T10:07:48.799Z,9268.00
2018-03-20T10:08:48.665Z,9120.00
2018-03-20T10:09:48.559Z,8812.00
2018-03-20T10:10:48.450Z,8556.00
2018-03-20T10:11:48.328Z,8388.00
2018-03-20T10:12:48.267Z,8332.00
2018-03-20T10:13:48.245Z,8144.00
2018-03-20T10:14:48.060Z,8136.00
2018-03-20T10:15:47.967Z,8132.00
2018-03-20T10:16:47.860Z,8028.00
2018-03-20T10:17:47.786Z,7780.00
2018-03-20T10:18:47.675Z,7588.00
2018-03-20T10:19:47.610Z,7504.00
2018-03-20T10:20:47.467Z,7544.00
2018-03-20T10:21:47.387Z,7576.00
2018-03-20T10:22:47.254Z,7512.00
2018-03-20T10:23:47.170Z,7548.00
2018-03-20T10:24:47.089Z,7640.00
2018-03-20T10:25:47.022Z,7600.00
2018-03-20T10:26:46.862Z,7692.00
2018-03-20T10:27:46.794Z,7608.00
2018-03-20T10:28:46.683Z,7608.00
2018-03-20T10:29:46.576Z,7576.00
2018-03-20T10:30:46.480Z,7472.00
2018-03-20T10:31:46.445Z,7428.00
2018-03-20T10:32:46.318Z,7492.00
2018-03-20T10:33:46.214Z,7584.00
2018-03-20T10:34:46.131Z,7696.00
2018-03-20T10:35:46.018Z,7760.00
2018-03-20T10:36:45.945Z,7864.00
2018-03-20T10:37:45.913Z,7896.00
2018-03-20T10:38:45.733Z,7980.00
2018-03-20T10:39:45.672Z,8068.00
2018-03-20T10:40:45.549Z,8172.00
2018-03-20T10:41:45.465Z,8200.00
2018-03-20T10:42:45.368Z,8232.00
2018-03-20T10:43:45.328Z,8336.00
2018-03-20T10:44:45.172Z,8456.00
2018-03-20T10:45:45.062Z,8576.00
2018-03-20T10:46:44.969Z,8688.00
2018-03-20T10:47:44.879Z,8816.00
2018-03-20T10:48:44.804Z,8840.00
2018-03-20T10:49:44.725Z,8972.00
2018-03-20T10:50:44.581Z,9140.00
2018-03-20T10:51:44.458Z,9136.00
2018-03-20T10:52:44.413Z,8888.00
2018-03-20T10:53:44.285Z,8744.00
2018-03-20T10:54:44.198Z,8736.00
2018-03-20T10:55:44.149Z,8612.00
2018-03-20T10:56:43.984Z,8584.00
2018-03-20T10:57:43.939Z,8612.00
2018-03-20T10:58:43.819Z,8632.00
2018-03-20T10:59:43.701Z,8780.00
2018-03-20T11:00:43.628Z,8796.00
2018-03-20T11:01:43.531Z,8932.00
2018-03-20T11:02:43.437Z,9124.00
2018-03-20T11:03:43.336Z,9260.00
2018-03-20T11:04:43.226Z,9384.00
2018-03-20T11:05:43.134Z,9400.00
2018-03-20T11:06:43.059Z,9412.00
2018-03-20T11:07:43.003Z,9392.00
2018-03-20T11:08:42.863Z,9432.00
2018-03-20T11:09:42.771Z,9412.00
2018-03-20T11:10:42.666Z,9612.00
2018-03-20T11:11:42.591Z,9864.00
2018-03-20T11:12:42.500Z,10024.00
2018-03-20T11:13:42.433Z,10216.00
2018-03-20T11:14:42.311Z,10448.00
2018-03-20T11:15:42.224Z,10672.00
2018-03-20T11:16:42.104Z,10724.00
2018-03-20T11:17:42.029Z,10896.00
2018-03-20T11:18:41.944Z,11276.00
2018-03-20T11:19:41.842Z,11536.00
2018-03-20T11:20:41.729Z,11736.00
2018-03-20T11:21:41.613Z,11840.00
2018-03-20T11:22:41.544Z,12152.00
2018-03-20T11:23:41.442Z,12376.00
2018-03-20T11:24:41.376Z,12448.00
2018-03-20T11:25:41.277Z,12472.00
2018-03-20T11:26:41.151Z,12572.00
2018-03-20T11:27:41.051Z,12776.00
2018-03-20T11:28:40.964Z,12768.00
2018-03-20T11:29:40.879Z,12756.00
2018-03-20T11:30:40.745Z,12840.00
2018-03-20T11:31:40.776Z,13012.00
2018-03-20T11:32:40.587Z,13248.00
2018-03-20T11:33:40.467Z,13264.00
2018-03-20T11:34:40.372Z,13060.00
2018-03-20T11:35:40.274Z,12596.00
2018-03-20T11:36:40.195Z,11976.00
2018-03-20T11:37:40.119Z,11576.00
2018-03-20T11:38:40.003Z,11336.00
2018-03-20T11:39:39.928Z,11204.00
2018-03-20T11:40:39.804Z,10944.00
2018-03-20T11:41:39.721Z,10800.00
2018-03-20T11:42:39.633Z,10692.00
2018-03-20T11:43:39.610Z,10692.00
2018-03-20T11:44:39.456Z,10392.00
2018-03-20T11:45:39.363Z,10640.00
2018-03-20T11:46:39.270Z,10556.00
2018-03-20T11:47:39.168Z,10812.00
2018-03-20T11:48:39.099Z,11024.00
2018-03-20T11:49:39.062Z,11044.00
2018-03-20T11:50:38.909Z,11284.00
2018-03-20T11:51:38.798Z,11312.00
2018-03-20T11:52:38.742Z,11404.00
2018-03-20T11:53:38.627Z,11860.00
2018-03-20T11:54:38.510Z,12164.00
2018-03-20T11:55:38.416Z,12104.00
2018-03-20T11:56:38.295Z,12460.00
2018-03-20T11:57:38.205Z,12376.00
2018-03-20T11:58:38.129Z,12268.00
2018-03-20T11:59:38.030Z,12172.00
2018-03-20T12:00:37.926Z,12024.00
2018-03-20T12:01:37.888Z,11956.00
2018-03-20T12:02:37.753Z,12032.00
2018-03-20T12:03:37.638Z,12184.00
2018-03-20T12:04:37.547Z,12180.00
2018-03-20T12:05:37.457Z,12420.00
2018-03-20T12:06:37.372Z,12996.00
2018-03-20T12:07:37.281Z,13092.00
2018-03-20T12:08:37.169Z,13100.00
2018-03-20T12:09:37.076Z,13388.00
2018-03-20T12:10:36.975Z,13628.00
2018-03-20T12:11:36.899Z,13848.00
2018-03-20T12:12:36.818Z,13948.00
2018-03-20T12:13:36.782Z,13884.00
2018-03-20T12:14:36.621Z,13880.00
2018-03-20T12:15:36.558Z,13772.00
2018-03-20T12:16:36.585Z,13308.00
2018-03-20T12:17:36.346Z,13184.00
2018-03-20T12:18:36.256Z,13692.00
2018-03-20T12:19:36.232Z,14308.00
2018-03-20T12:20:36.051Z,15244.00
2018-03-20T12:21:35.997Z,16176.00
2018-03-20T12:22:35.871Z,17248.00
2018-03-20T12:23:35.789Z,18400.00
2018-03-20T12:24:35.742Z,19392.00
2018-03-20T12:25:35.620Z,20800.00
2018-03-20T12:26:35.471Z,22144.00